This is the latest recevied weather packets stored in our database for station/object 9M4GHZ-13. If no packets are shown the sender has not sent any weather packets the latest 10 day(s).
| Time | Temp. | Humidity | Pressure | Rain* | Wind** | Luminosity | Snow |
|---|---|---|---|---|---|---|---|
| 1778219404 | 30° C | 75% | 1007.2 hPa | - | - | - | - |
| 1778218805 | 30° C | 76% | 1007.1 hPa | - | - | - | - |
| 1778218205 | 29.44° C | 77% | 1007.6 hPa | - | - | - | - |
| 1778217604 | 28.89° C | 78% | 1007.9 hPa | - | - | - | - |
| 1778217005 | 28.33° C | 80% | 1007.8 hPa | - | - | - | - |
| 1778216405 | 28.33° C | 79% | 1008 hPa | - | - | - | - |
| 1778215805 | 28.33° C | 80% | 1008.2 hPa | - | - | - | - |
| 1778215205 | 27.78° C | 80% | 1008.2 hPa | - | - | - | - |
| 1778214605 | 27.78° C | 81% | 1008.5 hPa | - | - | - | - |
| 1778214004 | 28.33° C | 78% | 1008.8 hPa | - | - | - | - |
| 1778213405 | 28.89° C | 78% | 1008.9 hPa | - | - | - | - |
| 1778212805 | 28.89° C | 76% | 1009 hPa | - | - | - | - |
| 1778212203 | 28.89° C | 77% | 1009 hPa | - | - | - | - |
| 1778211604 | 29.44° C | 76% | 1009 hPa | - | - | - | - |
| 1778211004 | 28.89° C | 77% | 1008.9 hPa | - | - | - | - |
| 1778210404 | 29.44° C | 76% | 1009 hPa | - | - | - | - |
| 1778209805 | 29.44° C | 75% | 1008.9 hPa | - | - | - | - |
| 1778209205 | 29.44° C | 75% | 1009.3 hPa | - | - | - | - |
| 1778208604 | 28.89° C | 76% | 1009.4 hPa | - | - | - | - |
| 1778208005 | 28.33° C | 78% | 1009.3 hPa | - | - | - | - |
| 1778207404 | 28.89° C | 78% | 1009.3 hPa | - | - | - | - |
| 1778206804 | 28.89° C | 78% | 1009.3 hPa | - | - | - | - |
| 1778206206 | 28.89° C | 79% | 1009.3 hPa | - | - | - | - |
| 1778205606 | 28.33° C | 79% | 1009.4 hPa | - | - | - | - |
| 1778205003 | 28.33° C | 81% | 1009.5 hPa | - | - | - | - |
* Rain since midnight (hover to see other rain measurements)
** Current wind speed in m/s (hover to see current wind gust speed)